sensor_id;sensor_type;location;lat;lon;timestamp;temperature;humidity
9103;DHT22;4587;51.434;6.788;2024-03-06T00:01:58;5.70;99.90
9103;DHT22;4587;51.434;6.788;2024-03-06T00:04:23;5.70;99.90
9103;DHT22;4587;51.434;6.788;2024-03-06T00:06:49;5.70;99.90
9103;DHT22;4587;51.434;6.788;2024-03-06T00:09:17;5.60;99.90
9103;DHT22;4587;51.434;6.788;2024-03-06T00:11:44;5.60;99.90
9103;DHT22;4587;51.434;6.788;2024-03-06T00:14:09;5.50;99.90
9103;DHT22;4587;51.434;6.788;2024-03-06T00:16:37;5.50;99.90
9103;DHT22;4587;51.434;6.788;2024-03-06T00:19:03;5.50;99.90
9103;DHT22;4587;51.434;6.788;2024-03-06T00:21:29;5.50;99.90
9103;DHT22;4587;51.434;6.788;2024-03-06T00:23:55;5.50;99.90
9103;DHT22;4587;51.434;6.788;2024-03-06T00:26:21;5.50;99.90
9103;DHT22;4587;51.434;6.788;2024-03-06T00:28:47;5.60;99.90
9103;DHT22;4587;51.434;6.788;2024-03-06T00:31:12;5.60;99.90
9103;DHT22;4587;51.434;6.788;2024-03-06T00:33:38;5.60;99.90
9103;DHT22;4587;51.434;6.788;2024-03-06T00:36:04;5.70;99.90
9103;DHT22;4587;51.434;6.788;2024-03-06T00:38:29;5.70;99.90
9103;DHT22;4587;51.434;6.788;2024-03-06T00:40:58;5.70;99.90
9103;DHT22;4587;51.434;6.788;2024-03-06T00:43:24;5.60;99.90
9103;DHT22;4587;51.434;6.788;2024-03-06T00:45:49;5.70;99.90
9103;DHT22;4587;51.434;6.788;2024-03-06T00:48:15;5.70;99.90
9103;DHT22;4587;51.434;6.788;2024-03-06T00:50:40;5.70;99.90
9103;DHT22;4587;51.434;6.788;2024-03-06T00:53:06;5.60;99.90
9103;DHT22;4587;51.434;6.788;2024-03-06T00:55:32;5.60;99.90
9103;DHT22;4587;51.434;6.788;2024-03-06T00:57:58;5.50;99.90
9103;DHT22;4587;51.434;6.788;2024-03-06T01:00:23;5.50;99.90
9103;DHT22;4587;51.434;6.788;2024-03-06T01:02:49;5.50;99.90
9103;DHT22;4587;51.434;6.788;2024-03-06T01:05:15;5.50;99.90
9103;DHT22;4587;51.434;6.788;2024-03-06T01:07:41;5.50;99.90
9103;DHT22;4587;51.434;6.788;2024-03-06T01:10:08;5.40;99.90
9103;DHT22;4587;51.434;6.788;2024-03-06T01:12:34;5.30;99.90
9103;DHT22;4587;51.434;6.788;2024-03-06T01:14:59;5.30;99.90
9103;DHT22;4587;51.434;6.788;2024-03-06T01:17:25;5.20;99.90
9103;DHT22;4587;51.434;6.788;2024-03-06T01:19:51;5.30;99.90
9103;DHT22;4587;51.434;6.788;2024-03-06T01:22:18;5.20;99.90
9103;DHT22;4587;51.434;6.788;2024-03-06T01:24:44;5.20;99.90
9103;DHT22;4587;51.434;6.788;2024-03-06T01:27:09;5.20;99.90
9103;DHT22;4587;51.434;6.788;2024-03-06T01:29:35;5.30;99.90
9103;DHT22;4587;51.434;6.788;2024-03-06T01:32:01;5.30;99.90
9103;DHT22;4587;51.434;6.788;2024-03-06T01:34:27;5.30;99.90
9103;DHT22;4587;51.434;6.788;2024-03-06T01:36:53;5.30;99.90
9103;DHT22;4587;51.434;6.788;2024-03-06T01:39:19;5.30;99.90
9103;DHT22;4587;51.434;6.788;2024-03-06T01:41:45;5.30;99.90
9103;DHT22;4587;51.434;6.788;2024-03-06T01:44:11;5.30;99.90
9103;DHT22;4587;51.434;6.788;2024-03-06T01:46:38;5.40;99.90
9103;DHT22;4587;51.434;6.788;2024-03-06T01:49:03;5.40;99.90
9103;DHT22;4587;51.434;6.788;2024-03-06T01:51:29;5.40;99.90
9103;DHT22;4587;51.434;6.788;2024-03-06T01:53:55;5.40;99.90
9103;DHT22;4587;51.434;6.788;2024-03-06T01:56:22;5.40;99.90
9103;DHT22;4587;51.434;6.788;2024-03-06T01:58:47;5.40;99.90
9103;DHT22;4587;51.434;6.788;2024-03-06T02:01:14;5.50;99.90
9103;DHT22;4587;51.434;6.788;2024-03-06T02:03:40;5.50;99.90
9103;DHT22;4587;51.434;6.788;2024-03-06T02:06:06;5.50;99.90
9103;DHT22;4587;51.434;6.788;2024-03-06T02:08:32;5.40;99.90
9103;DHT22;4587;51.434;6.788;2024-03-06T02:10:58;5.40;99.90
9103;DHT22;4587;51.434;6.788;2024-03-06T02:13:27;5.50;99.90
9103;DHT22;4587;51.434;6.788;2024-03-06T02:15:53;5.60;99.90
9103;DHT22;4587;51.434;6.788;2024-03-06T02:18:18;5.60;99.90
9103;DHT22;4587;51.434;6.788;2024-03-06T02:20:44;5.60;99.90
9103;DHT22;4587;51.434;6.788;2024-03-06T02:23:11;5.50;99.90
9103;DHT22;4587;51.434;6.788;2024-03-06T02:25:36;5.50;99.90
9103;DHT22;4587;51.434;6.788;2024-03-06T02:28:02;5.40;99.90
9103;DHT22;4587;51.434;6.788;2024-03-06T02:30:27;5.40;99.90
9103;DHT22;4587;51.434;6.788;2024-03-06T02:32:55;5.20;99.90
9103;DHT22;4587;51.434;6.788;2024-03-06T02:35:21;5.20;99.90
9103;DHT22;4587;51.434;6.788;2024-03-06T02:37:47;5.10;99.90
9103;DHT22;4587;51.434;6.788;2024-03-06T02:40:12;5.10;99.90
9103;DHT22;4587;51.434;6.788;2024-03-06T02:42:38;5.00;99.90
9103;DHT22;4587;51.434;6.788;2024-03-06T02:45:05;5.00;99.90
9103;DHT22;4587;51.434;6.788;2024-03-06T02:47:31;5.00;99.90
9103;DHT22;4587;51.434;6.788;2024-03-06T02:49:56;5.00;99.90
9103;DHT22;4587;51.434;6.788;2024-03-06T02:52:22;5.00;99.90
9103;DHT22;4587;51.434;6.788;2024-03-06T02:54:47;5.00;99.90
9103;DHT22;4587;51.434;6.788;2024-03-06T02:57:13;5.00;99.90
9103;DHT22;4587;51.434;6.788;2024-03-06T02:59:42;5.00;99.90
9103;DHT22;4587;51.434;6.788;2024-03-06T03:02:08;5.00;99.90
9103;DHT22;4587;51.434;6.788;2024-03-06T03:04:33;5.00;99.90
9103;DHT22;4587;51.434;6.788;2024-03-06T03:06:59;4.90;99.90
9103;DHT22;4587;51.434;6.788;2024-03-06T03:09:24;4.90;99.90
9103;DHT22;4587;51.434;6.788;2024-03-06T03:11:50;4.90;99.90
9103;DHT22;4587;51.434;6.788;2024-03-06T03:14:15;4.90;99.90
9103;DHT22;4587;51.434;6.788;2024-03-06T03:16:41;4.90;99.90
9103;DHT22;4587;51.434;6.788;2024-03-06T03:19:07;4.80;99.90
9103;DHT22;4587;51.434;6.788;2024-03-06T03:21:34;4.80;99.90
9103;DHT22;4587;51.434;6.788;2024-03-06T03:23:59;4.70;99.90
9103;DHT22;4587;51.434;6.788;2024-03-06T03:26:25;4.70;99.90
9103;DHT22;4587;51.434;6.788;2024-03-06T03:28:51;4.70;99.90
9103;DHT22;4587;51.434;6.788;2024-03-06T03:31:16;4.70;99.90
9103;DHT22;4587;51.434;6.788;2024-03-06T03:33:42;4.70;99.90
9103;DHT22;4587;51.434;6.788;2024-03-06T03:36:08;4.70;99.90
9103;DHT22;4587;51.434;6.788;2024-03-06T03:38:35;4.70;99.90
9103;DHT22;4587;51.434;6.788;2024-03-06T03:41:10;4.70;99.90
9103;DHT22;4587;51.434;6.788;2024-03-06T03:43:35;4.60;99.90
9103;DHT22;4587;51.434;6.788;2024-03-06T03:46:01;4.60;99.90
9103;DHT22;4587;51.434;6.788;2024-03-06T03:48:26;4.60;99.90
9103;DHT22;4587;51.434;6.788;2024-03-06T03:50:52;4.60;99.90
9103;DHT22;4587;51.434;6.788;2024-03-06T03:53:17;4.60;99.90
9103;DHT22;4587;51.434;6.788;2024-03-06T03:55:43;4.60;99.90
9103;DHT22;4587;51.434;6.788;2024-03-06T03:58:09;4.60;99.90
9103;DHT22;4587;51.434;6.788;2024-03-06T04:00:34;4.60;99.90
9103;DHT22;4587;51.434;6.788;2024-03-06T04:03:00;4.60;99.90
9103;DHT22;4587;51.434;6.788;2024-03-06T04:05:25;4.60;99.90
9103;DHT22;4587;51.434;6.788;2024-03-06T04:07:51;4.60;99.90
9103;DHT22;4587;51.434;6.788;2024-03-06T04:10:17;4.50;99.90
9103;DHT22;4587;51.434;6.788;2024-03-06T04:12:42;4.50;99.90
9103;DHT22;4587;51.434;6.788;2024-03-06T04:15:08;4.50;99.90
9103;DHT22;4587;51.434;6.788;2024-03-06T04:17:34;4.50;99.90
9103;DHT22;4587;51.434;6.788;2024-03-06T04:20:01;4.50;99.90
9103;DHT22;4587;51.434;6.788;2024-03-06T04:22:26;4.40;99.90
9103;DHT22;4587;51.434;6.788;2024-03-06T04:24:52;4.40;99.90
9103;DHT22;4587;51.434;6.788;2024-03-06T04:27:17;4.40;99.90
9103;DHT22;4587;51.434;6.788;2024-03-06T04:29:43;4.40;99.90
9103;DHT22;4587;51.434;6.788;2024-03-06T04:32:08;4.40;99.90
9103;DHT22;4587;51.434;6.788;2024-03-06T04:34:34;4.40;99.90
9103;DHT22;4587;51.434;6.788;2024-03-06T04:37:00;4.40;99.90
9103;DHT22;4587;51.434;6.788;2024-03-06T04:39:26;4.40;99.90
9103;DHT22;4587;51.434;6.788;2024-03-06T04:41:51;4.40;99.90
9103;DHT22;4587;51.434;6.788;2024-03-06T04:44:17;4.40;99.90
9103;DHT22;4587;51.434;6.788;2024-03-06T04:46:42;4.50;99.90
9103;DHT22;4587;51.434;6.788;2024-03-06T04:49:08;4.50;99.90
9103;DHT22;4587;51.434;6.788;2024-03-06T04:51:33;4.50;99.90
9103;DHT22;4587;51.434;6.788;2024-03-06T04:53:59;4.50;99.90
9103;DHT22;4587;51.434;6.788;2024-03-06T04:56:24;4.50;99.90
9103;DHT22;4587;51.434;6.788;2024-03-06T04:58:50;4.60;99.90
9103;DHT22;4587;51.434;6.788;2024-03-06T05:01:17;4.60;99.90
9103;DHT22;4587;51.434;6.788;2024-03-06T05:03:43;4.60;99.90
9103;DHT22;4587;51.434;6.788;2024-03-06T05:06:08;4.70;99.90
9103;DHT22;4587;51.434;6.788;2024-03-06T05:08:34;4.70;99.90
9103;DHT22;4587;51.434;6.788;2024-03-06T05:11:00;4.70;99.90
9103;DHT22;4587;51.434;6.788;2024-03-06T05:13:27;4.80;99.90
9103;DHT22;4587;51.434;6.788;2024-03-06T05:15:52;4.80;99.90
9103;DHT22;4587;51.434;6.788;2024-03-06T05:18:20;4.80;99.90
9103;DHT22;4587;51.434;6.788;2024-03-06T05:20:46;4.80;99.90
9103;DHT22;4587;51.434;6.788;2024-03-06T05:23:11;4.80;99.90
9103;DHT22;4587;51.434;6.788;2024-03-06T05:25:38;4.80;99.90
9103;DHT22;4587;51.434;6.788;2024-03-06T05:28:04;4.80;99.90
9103;DHT22;4587;51.434;6.788;2024-03-06T05:30:29;4.70;99.90
9103;DHT22;4587;51.434;6.788;2024-03-06T05:32:56;4.70;99.90
9103;DHT22;4587;51.434;6.788;2024-03-06T05:35:21;4.70;99.90
9103;DHT22;4587;51.434;6.788;2024-03-06T05:37:47;4.60;99.90
9103;DHT22;4587;51.434;6.788;2024-03-06T05:40:13;4.60;99.90
9103;DHT22;4587;51.434;6.788;2024-03-06T05:42:38;4.60;99.90
9103;DHT22;4587;51.434;6.788;2024-03-06T05:45:04;4.60;99.90
9103;DHT22;4587;51.434;6.788;2024-03-06T05:47:38;4.70;99.90
9103;DHT22;4587;51.434;6.788;2024-03-06T05:50:07;4.60;99.90
9103;DHT22;4587;51.434;6.788;2024-03-06T05:52:33;4.60;99.90
9103;DHT22;4587;51.434;6.788;2024-03-06T05:55:02;4.60;99.90
9103;DHT22;4587;51.434;6.788;2024-03-06T05:57:28;4.60;99.90
9103;DHT22;4587;51.434;6.788;2024-03-06T05:59:53;4.60;99.90
9103;DHT22;4587;51.434;6.788;2024-03-06T06:02:19;4.60;99.90
9103;DHT22;4587;51.434;6.788;2024-03-06T06:04:46;4.60;99.90
9103;DHT22;4587;51.434;6.788;2024-03-06T06:07:11;4.70;99.90
9103;DHT22;4587;51.434;6.788;2024-03-06T06:09:37;4.70;99.90
9103;DHT22;4587;51.434;6.788;2024-03-06T06:12:02;4.70;99.90
9103;DHT22;4587;51.434;6.788;2024-03-06T06:14:28;4.80;99.90
9103;DHT22;4587;51.434;6.788;2024-03-06T06:16:55;4.80;99.90
9103;DHT22;4587;51.434;6.788;2024-03-06T06:19:21;4.90;99.90
9103;DHT22;4587;51.434;6.788;2024-03-06T06:21:46;4.90;99.90
9103;DHT22;4587;51.434;6.788;2024-03-06T06:24:13;4.90;99.90
9103;DHT22;4587;51.434;6.788;2024-03-06T06:26:39;4.90;99.90
9103;DHT22;4587;51.434;6.788;2024-03-06T06:29:04;5.00;99.90
9103;DHT22;4587;51.434;6.788;2024-03-06T06:31:30;5.00;99.90
9103;DHT22;4587;51.434;6.788;2024-03-06T06:33:55;5.00;99.90
9103;DHT22;4587;51.434;6.788;2024-03-06T06:36:21;5.10;99.90
9103;DHT22;4587;51.434;6.788;2024-03-06T06:38:49;5.10;99.90
9103;DHT22;4587;51.434;6.788;2024-03-06T06:41:18;5.20;99.90
9103;DHT22;4587;51.434;6.788;2024-03-06T06:43:44;5.20;99.90
9103;DHT22;4587;51.434;6.788;2024-03-06T06:46:10;5.40;99.90
9103;DHT22;4587;51.434;6.788;2024-03-06T06:48:36;5.40;99.90
9103;DHT22;4587;51.434;6.788;2024-03-06T06:51:01;5.50;99.90
9103;DHT22;4587;51.434;6.788;2024-03-06T06:53:30;5.50;99.90
9103;DHT22;4587;51.434;6.788;2024-03-06T06:55:57;5.60;99.90
9103;DHT22;4587;51.434;6.788;2024-03-06T06:58:23;5.70;99.90
9103;DHT22;4587;51.434;6.788;2024-03-06T07:00:48;5.70;99.90
9103;DHT22;4587;51.434;6.788;2024-03-06T07:03:14;5.90;99.90
9103;DHT22;4587;51.434;6.788;2024-03-06T07:05:39;5.90;99.90
9103;DHT22;4587;51.434;6.788;2024-03-06T07:08:07;5.90;99.90
9103;DHT22;4587;51.434;6.788;2024-03-06T07:10:33;6.00;99.90
9103;DHT22;4587;51.434;6.788;2024-03-06T07:13:01;6.00;99.90
9103;DHT22;4587;51.434;6.788;2024-03-06T07:15:28;6.10;99.90
9103;DHT22;4587;51.434;6.788;2024-03-06T07:17:54;6.30;99.90
9103;DHT22;4587;51.434;6.788;2024-03-06T07:20:19;6.50;99.90
9103;DHT22;4587;51.434;6.788;2024-03-06T07:22:45;6.70;99.90
9103;DHT22;4587;51.434;6.788;2024-03-06T07:25:10;7.00;99.90
9103;DHT22;4587;51.434;6.788;2024-03-06T07:27:36;7.20;99.90
9103;DHT22;4587;51.434;6.788;2024-03-06T07:30:02;7.40;99.90
9103;DHT22;4587;51.434;6.788;2024-03-06T07:32:27;7.50;99.90
9103;DHT22;4587;51.434;6.788;2024-03-06T07:34:53;7.50;99.90
9103;DHT22;4587;51.434;6.788;2024-03-06T07:37:18;7.60;99.90
9103;DHT22;4587;51.434;6.788;2024-03-06T07:39:44;7.70;99.90
9103;DHT22;4587;51.434;6.788;2024-03-06T07:42:11;7.90;99.90
9103;DHT22;4587;51.434;6.788;2024-03-06T07:44:36;8.00;99.90
9103;DHT22;4587;51.434;6.788;2024-03-06T07:47:02;8.20;99.90
9103;DHT22;4587;51.434;6.788;2024-03-06T07:49:28;8.30;99.90
9103;DHT22;4587;51.434;6.788;2024-03-06T07:51:53;8.40;99.90
9103;DHT22;4587;51.434;6.788;2024-03-06T07:54:19;8.70;99.90
9103;DHT22;4587;51.434;6.788;2024-03-06T07:56:44;9.40;99.90
9103;DHT22;4587;51.434;6.788;2024-03-06T07:59:10;10.10;99.90
9103;DHT22;4587;51.434;6.788;2024-03-06T08:01:38;10.80;99.90
9103;DHT22;4587;51.434;6.788;2024-03-06T08:04:03;11.60;99.90
9103;DHT22;4587;51.434;6.788;2024-03-06T08:06:29;12.30;99.90
9103;DHT22;4587;51.434;6.788;2024-03-06T08:08:58;12.90;99.90
9103;DHT22;4587;51.434;6.788;2024-03-06T08:11:24;13.50;99.90
9103;DHT22;4587;51.434;6.788;2024-03-06T08:13:50;13.90;99.90
9103;DHT22;4587;51.434;6.788;2024-03-06T08:16:22;13.70;99.90
9103;DHT22;4587;51.434;6.788;2024-03-06T08:18:50;13.20;99.90
9103;DHT22;4587;51.434;6.788;2024-03-06T08:21:15;12.90;99.90
9103;DHT22;4587;51.434;6.788;2024-03-06T08:23:41;13.00;99.90
9103;DHT22;4587;51.434;6.788;2024-03-06T08:26:07;13.20;99.90
9103;DHT22;4587;51.434;6.788;2024-03-06T08:28:32;13.80;99.90
9103;DHT22;4587;51.434;6.788;2024-03-06T08:30:59;14.30;99.90
9103;DHT22;4587;51.434;6.788;2024-03-06T08:33:25;14.60;99.90
9103;DHT22;4587;51.434;6.788;2024-03-06T08:35:51;15.10;99.90
9103;DHT22;4587;51.434;6.788;2024-03-06T08:38:16;15.40;99.90
9103;DHT22;4587;51.434;6.788;2024-03-06T08:40:45;15.10;99.90
9103;DHT22;4587;51.434;6.788;2024-03-06T08:43:12;14.30;99.90
9103;DHT22;4587;51.434;6.788;2024-03-06T08:45:38;13.70;99.90
9103;DHT22;4587;51.434;6.788;2024-03-06T08:48:04;13.10;99.90
9103;DHT22;4587;51.434;6.788;2024-03-06T08:50:31;12.60;99.90
9103;DHT22;4587;51.434;6.788;2024-03-06T08:52:56;12.10;99.90
9103;DHT22;4587;51.434;6.788;2024-03-06T08:55:22;11.80;99.90
9103;DHT22;4587;51.434;6.788;2024-03-06T08:57:47;11.60;99.90
9103;DHT22;4587;51.434;6.788;2024-03-06T09:00:13;11.60;99.90
9103;DHT22;4587;51.434;6.788;2024-03-06T09:02:40;11.60;99.90
9103;DHT22;4587;51.434;6.788;2024-03-06T09:05:06;11.50;99.90
9103;DHT22;4587;51.434;6.788;2024-03-06T09:07:32;11.40;99.90
9103;DHT22;4587;51.434;6.788;2024-03-06T09:10:03;11.30;99.90
9103;DHT22;4587;51.434;6.788;2024-03-06T09:12:31;11.10;99.90
9103;DHT22;4587;51.434;6.788;2024-03-06T09:14:56;11.00;99.90
9103;DHT22;4587;51.434;6.788;2024-03-06T09:17:22;10.80;99.90
9103;DHT22;4587;51.434;6.788;2024-03-06T09:19:47;10.80;99.90
9103;DHT22;4587;51.434;6.788;2024-03-06T09:22:13;10.90;99.90
9103;DHT22;4587;51.434;6.788;2024-03-06T09:24:38;10.90;99.90
9103;DHT22;4587;51.434;6.788;2024-03-06T09:27:04;10.90;99.90
9103;DHT22;4587;51.434;6.788;2024-03-06T09:29:29;10.90;99.90
9103;DHT22;4587;51.434;6.788;2024-03-06T09:31:55;10.80;99.90
9103;DHT22;4587;51.434;6.788;2024-03-06T09:34:21;10.90;99.90
9103;DHT22;4587;51.434;6.788;2024-03-06T09:36:48;10.80;99.90
9103;DHT22;4587;51.434;6.788;2024-03-06T09:39:15;11.00;99.90
9103;DHT22;4587;51.434;6.788;2024-03-06T09:41:45;11.50;99.90
9103;DHT22;4587;51.434;6.788;2024-03-06T09:44:12;11.50;99.90
9103;DHT22;4587;51.434;6.788;2024-03-06T09:46:42;11.50;99.90
9103;DHT22;4587;51.434;6.788;2024-03-06T09:49:10;11.40;99.90
9103;DHT22;4587;51.434;6.788;2024-03-06T09:51:37;12.30;99.90
9103;DHT22;4587;51.434;6.788;2024-03-06T09:54:05;13.00;99.90
9103;DHT22;4587;51.434;6.788;2024-03-06T09:56:33;13.30;99.90
9103;DHT22;4587;51.434;6.788;2024-03-06T09:58:58;13.20;99.90
9103;DHT22;4587;51.434;6.788;2024-03-06T10:01:24;12.90;99.90
9103;DHT22;4587;51.434;6.788;2024-03-06T10:03:51;12.60;99.90
9103;DHT22;4587;51.434;6.788;2024-03-06T10:06:16;12.30;99.90
9103;DHT22;4587;51.434;6.788;2024-03-06T10:08:42;12.10;99.90
9103;DHT22;4587;51.434;6.788;2024-03-06T10:11:09;12.00;99.90
9103;DHT22;4587;51.434;6.788;2024-03-06T10:13:35;12.00;99.90
9103;DHT22;4587;51.434;6.788;2024-03-06T10:16:03;12.00;99.90
9103;DHT22;4587;51.434;6.788;2024-03-06T10:18:30;12.00;99.90
9103;DHT22;4587;51.434;6.788;2024-03-06T10:20:56;11.90;99.90
9103;DHT22;4587;51.434;6.788;2024-03-06T10:23:23;11.90;99.90
9103;DHT22;4587;51.434;6.788;2024-03-06T10:25:49;11.80;99.90
9103;DHT22;4587;51.434;6.788;2024-03-06T10:28:17;11.80;99.90
9103;DHT22;4587;51.434;6.788;2024-03-06T10:30:43;11.80;99.90
9103;DHT22;4587;51.434;6.788;2024-03-06T10:33:11;11.90;99.90
9103;DHT22;4587;51.434;6.788;2024-03-06T10:35:37;12.00;99.90
9103;DHT22;4587;51.434;6.788;2024-03-06T10:38:04;12.10;99.90
9103;DHT22;4587;51.434;6.788;2024-03-06T10:40:37;12.20;99.90
9103;DHT22;4587;51.434;6.788;2024-03-06T10:43:05;12.20;99.90
9103;DHT22;4587;51.434;6.788;2024-03-06T10:45:49;12.10;99.90
9103;DHT22;4587;51.434;6.788;2024-03-06T10:48:19;12.00;99.90
9103;DHT22;4587;51.434;6.788;2024-03-06T10:50:46;12.10;99.90
9103;DHT22;4587;51.434;6.788;2024-03-06T10:53:14;12.00;99.90
9103;DHT22;4587;51.434;6.788;2024-03-06T10:55:42;12.00;99.90
9103;DHT22;4587;51.434;6.788;2024-03-06T10:58:10;12.00;99.90
9103;DHT22;4587;51.434;6.788;2024-03-06T11:00:44;12.00;99.90
9103;DHT22;4587;51.434;6.788;2024-03-06T11:03:11;12.10;99.90
9103;DHT22;4587;51.434;6.788;2024-03-06T11:05:41;12.20;99.90
9103;DHT22;4587;51.434;6.788;2024-03-06T11:08:12;12.20;99.90
9103;DHT22;4587;51.434;6.788;2024-03-06T11:10:41;12.30;99.90
9103;DHT22;4587;51.434;6.788;2024-03-06T11:15:45;12.50;99.90
9103;DHT22;4587;51.434;6.788;2024-03-06T11:23:29;12.50;99.90
9103;DHT22;4587;51.434;6.788;2024-03-06T11:25:56;12.40;99.90
9103;DHT22;4587;51.434;6.788;2024-03-06T11:28:33;12.30;99.90
9103;DHT22;4587;51.434;6.788;2024-03-06T11:31:07;12.20;99.90
9103;DHT22;4587;51.434;6.788;2024-03-06T11:33:44;12.10;99.90
9103;DHT22;4587;51.434;6.788;2024-03-06T11:36:28;11.80;99.90
9103;DHT22;4587;51.434;6.788;2024-03-06T11:39:04;11.60;99.90
9103;DHT22;4587;51.434;6.788;2024-03-06T11:44:00;11.70;99.90
9103;DHT22;4587;51.434;6.788;2024-03-06T11:46:46;11.70;99.90
9103;DHT22;4587;51.434;6.788;2024-03-06T11:49:21;11.80;99.90
9103;DHT22;4587;51.434;6.788;2024-03-06T11:51:53;11.60;99.90
9103;DHT22;4587;51.434;6.788;2024-03-06T11:54:18;11.40;99.90
9103;DHT22;4587;51.434;6.788;2024-03-06T11:56:49;11.40;99.90
9103;DHT22;4587;51.434;6.788;2024-03-06T11:59:16;11.20;99.90
9103;DHT22;4587;51.434;6.788;2024-03-06T12:01:42;11.20;99.90
9103;DHT22;4587;51.434;6.788;2024-03-06T12:04:07;11.00;99.90
9103;DHT22;4587;51.434;6.788;2024-03-06T12:06:33;11.00;99.90
9103;DHT22;4587;51.434;6.788;2024-03-06T12:08:59;10.90;99.90
9103;DHT22;4587;51.434;6.788;2024-03-06T12:11:25;10.90;99.90
9103;DHT22;4587;51.434;6.788;2024-03-06T12:13:54;10.90;99.90
9103;DHT22;4587;51.434;6.788;2024-03-06T12:16:21;10.90;99.90
9103;DHT22;4587;51.434;6.788;2024-03-06T12:18:46;10.90;99.90
9103;DHT22;4587;51.434;6.788;2024-03-06T12:21:12;11.00;99.90
9103;DHT22;4587;51.434;6.788;2024-03-06T12:23:39;11.10;99.90
9103;DHT22;4587;51.434;6.788;2024-03-06T12:26:09;11.10;99.90
9103;DHT22;4587;51.434;6.788;2024-03-06T12:28:39;11.20;99.90
9103;DHT22;4587;51.434;6.788;2024-03-06T12:31:05;11.40;99.90
9103;DHT22;4587;51.434;6.788;2024-03-06T12:33:33;11.40;99.90
9103;DHT22;4587;51.434;6.788;2024-03-06T12:36:06;11.50;99.90
9103;DHT22;4587;51.434;6.788;2024-03-06T12:38:32;11.80;99.90
9103;DHT22;4587;51.434;6.788;2024-03-06T12:40:59;12.00;99.90
9103;DHT22;4587;51.434;6.788;2024-03-06T12:46:03;12.40;99.90
9103;DHT22;4587;51.434;6.788;2024-03-06T12:48:29;12.50;99.90
9103;DHT22;4587;51.434;6.788;2024-03-06T12:50:55;12.60;99.90
9103;DHT22;4587;51.434;6.788;2024-03-06T12:53:21;12.70;99.90
9103;DHT22;4587;51.434;6.788;2024-03-06T12:55:47;12.70;99.90
9103;DHT22;4587;51.434;6.788;2024-03-06T12:58:14;12.70;99.90
9103;DHT22;4587;51.434;6.788;2024-03-06T13:00:40;12.70;99.90
9103;DHT22;4587;51.434;6.788;2024-03-06T13:03:06;12.60;99.90
9103;DHT22;4587;51.434;6.788;2024-03-06T13:05:32;12.60;99.90
9103;DHT22;4587;51.434;6.788;2024-03-06T13:07:58;12.50;99.90
9103;DHT22;4587;51.434;6.788;2024-03-06T13:10:25;12.60;99.90
9103;DHT22;4587;51.434;6.788;2024-03-06T13:12:50;12.60;99.90
9103;DHT22;4587;51.434;6.788;2024-03-06T13:15:16;12.70;99.90
9103;DHT22;4587;51.434;6.788;2024-03-06T13:17:41;12.80;99.90
9103;DHT22;4587;51.434;6.788;2024-03-06T13:20:07;12.70;99.90
9103;DHT22;4587;51.434;6.788;2024-03-06T13:22:39;12.50;99.90
9103;DHT22;4587;51.434;6.788;2024-03-06T13:25:05;12.50;99.90
9103;DHT22;4587;51.434;6.788;2024-03-06T13:27:31;12.50;99.90
9103;DHT22;4587;51.434;6.788;2024-03-06T13:29:57;12.50;99.90
9103;DHT22;4587;51.434;6.788;2024-03-06T13:32:23;12.50;99.90
9103;DHT22;4587;51.434;6.788;2024-03-06T13:34:49;12.50;99.90
9103;DHT22;4587;51.434;6.788;2024-03-06T13:37:15;12.50;99.90
9103;DHT22;4587;51.434;6.788;2024-03-06T13:39:41;12.50;99.90
9103;DHT22;4587;51.434;6.788;2024-03-06T13:42:07;12.40;99.90
9103;DHT22;4587;51.434;6.788;2024-03-06T13:44:36;12.40;99.90
9103;DHT22;4587;51.434;6.788;2024-03-06T13:47:02;12.50;99.90
9103;DHT22;4587;51.434;6.788;2024-03-06T13:49:39;12.40;99.90
9103;DHT22;4587;51.434;6.788;2024-03-06T13:52:06;12.50;99.90
9103;DHT22;4587;51.434;6.788;2024-03-06T13:54:33;12.60;99.90
9103;DHT22;4587;51.434;6.788;2024-03-06T13:56:58;12.70;99.90
9103;DHT22;4587;51.434;6.788;2024-03-06T13:59:31;12.70;99.90
9103;DHT22;4587;51.434;6.788;2024-03-06T14:01:57;12.70;99.90
9103;DHT22;4587;51.434;6.788;2024-03-06T14:04:22;12.80;99.90
9103;DHT22;4587;51.434;6.788;2024-03-06T14:06:49;12.80;99.90
9103;DHT22;4587;51.434;6.788;2024-03-06T14:09:15;12.90;99.90
9103;DHT22;4587;51.434;6.788;2024-03-06T14:11:41;12.90;99.90
9103;DHT22;4587;51.434;6.788;2024-03-06T14:14:06;12.90;99.90
9103;DHT22;4587;51.434;6.788;2024-03-06T14:16:32;12.90;99.90
9103;DHT22;4587;51.434;6.788;2024-03-06T14:18:57;12.90;99.90
9103;DHT22;4587;51.434;6.788;2024-03-06T14:21:23;13.00;99.90
9103;DHT22;4587;51.434;6.788;2024-03-06T14:23:49;12.90;99.90
9103;DHT22;4587;51.434;6.788;2024-03-06T14:26:15;12.90;99.90
9103;DHT22;4587;51.434;6.788;2024-03-06T14:28:41;12.80;99.90
9103;DHT22;4587;51.434;6.788;2024-03-06T14:31:08;12.70;99.90
9103;DHT22;4587;51.434;6.788;2024-03-06T14:33:39;12.80;99.90
9103;DHT22;4587;51.434;6.788;2024-03-06T14:36:04;12.70;99.90
9103;DHT22;4587;51.434;6.788;2024-03-06T14:38:30;12.80;99.90
9103;DHT22;4587;51.434;6.788;2024-03-06T14:40:56;12.80;99.90
9103;DHT22;4587;51.434;6.788;2024-03-06T14:43:21;12.70;99.90
9103;DHT22;4587;51.434;6.788;2024-03-06T14:45:47;12.70;99.90
9103;DHT22;4587;51.434;6.788;2024-03-06T14:48:12;12.70;99.90
9103;DHT22;4587;51.434;6.788;2024-03-06T14:50:38;12.70;99.90
9103;DHT22;4587;51.434;6.788;2024-03-06T14:53:03;12.60;99.90
9103;DHT22;4587;51.434;6.788;2024-03-06T14:55:31;12.50;99.90
9103;DHT22;4587;51.434;6.788;2024-03-06T14:57:56;12.50;99.90
9103;DHT22;4587;51.434;6.788;2024-03-06T15:00:22;12.40;99.90
9103;DHT22;4587;51.434;6.788;2024-03-06T15:02:48;12.30;99.90
9103;DHT22;4587;51.434;6.788;2024-03-06T15:05:14;12.30;99.90
9103;DHT22;4587;51.434;6.788;2024-03-06T15:07:39;12.30;99.90
9103;DHT22;4587;51.434;6.788;2024-03-06T15:10:06;12.30;99.90
9103;DHT22;4587;51.434;6.788;2024-03-06T15:12:33;12.30;99.90
9103;DHT22;4587;51.434;6.788;2024-03-06T15:14:59;12.20;99.90
9103;DHT22;4587;51.434;6.788;2024-03-06T15:17:25;12.20;99.90
9103;DHT22;4587;51.434;6.788;2024-03-06T15:19:51;12.20;99.90
9103;DHT22;4587;51.434;6.788;2024-03-06T15:22:17;12.20;99.90
9103;DHT22;4587;51.434;6.788;2024-03-06T15:24:43;12.30;99.90
9103;DHT22;4587;51.434;6.788;2024-03-06T15:27:11;12.20;99.90
9103;DHT22;4587;51.434;6.788;2024-03-06T15:29:37;12.30;99.90
9103;DHT22;4587;51.434;6.788;2024-03-06T15:32:04;12.30;99.90
9103;DHT22;4587;51.434;6.788;2024-03-06T15:34:30;12.20;99.90
9103;DHT22;4587;51.434;6.788;2024-03-06T15:36:55;12.10;99.90
9103;DHT22;4587;51.434;6.788;2024-03-06T15:39:21;12.10;99.90
9103;DHT22;4587;51.434;6.788;2024-03-06T15:41:47;12.10;99.90
9103;DHT22;4587;51.434;6.788;2024-03-06T15:44:12;12.10;99.90
9103;DHT22;4587;51.434;6.788;2024-03-06T15:46:38;12.00;99.90
9103;DHT22;4587;51.434;6.788;2024-03-06T15:49:07;12.00;99.90
9103;DHT22;4587;51.434;6.788;2024-03-06T15:51:44;12.00;99.90
9103;DHT22;4587;51.434;6.788;2024-03-06T15:54:09;12.00;99.90
9103;DHT22;4587;51.434;6.788;2024-03-06T15:56:35;12.00;99.90
9103;DHT22;4587;51.434;6.788;2024-03-06T15:59:00;12.00;99.90
9103;DHT22;4587;51.434;6.788;2024-03-06T16:01:26;11.90;99.90
9103;DHT22;4587;51.434;6.788;2024-03-06T16:03:52;11.90;99.90
9103;DHT22;4587;51.434;6.788;2024-03-06T16:06:18;11.80;99.90
9103;DHT22;4587;51.434;6.788;2024-03-06T16:08:43;11.90;99.90
9103;DHT22;4587;51.434;6.788;2024-03-06T16:11:09;11.90;99.90
9103;DHT22;4587;51.434;6.788;2024-03-06T16:13:34;11.90;99.90
9103;DHT22;4587;51.434;6.788;2024-03-06T16:16:00;11.80;99.90
9103;DHT22;4587;51.434;6.788;2024-03-06T16:18:25;11.80;99.90